Time;durP1;ratioP1;P1;durP2;ratioP2;P2;SDS_P1;SDS_P2;PMS_P1;PMS_P2;Temp;Humidity;BMP_temperature;BMP_pressure;BME280_temperature;BME280_humidity;BME280_pressure;Samples;Min_cycle;Max_cycle;Signal;HPM_P1;HPM_P2
2022/12/24 00:02:23;;;;;;;13.75;3.10;;;11.00;1.00;;;;;;5071188;28;20357;-78
2022/12/24 00:04:49;;;;;;;8.95;1.92;;;11.00;1.00;;;;;;5065086;28;20036;-76
2022/12/24 00:07:15;;;;;;;11.60;4.28;;;11.00;1.00;;;;;;5072950;28;20033;-79
2022/12/24 00:09:41;;;;;;;12.93;2.47;;;11.00;1.00;;;;;;5072064;28;20044;-79
2022/12/24 00:12:07;;;;;;;7.65;2.33;;;11.10;1.00;;;;;;5070654;28;20445;-80
2022/12/24 00:14:34;;;;;;;10.60;3.03;;;11.10;1.00;;;;;;5069254;28;20044;-80
2022/12/24 00:17:00;;;;;;;10.15;2.60;;;11.20;1.00;;;;;;5071246;28;20044;-81
2022/12/24 00:19:26;;;;;;;6.55;1.83;;;11.30;1.00;;;;;;5072129;28;20107;-81
2022/12/24 00:21:52;;;;;;;13.48;5.25;;;11.30;1.00;;;;;;5070925;28;20025;-79
2022/12/24 00:24:18;;;;;;;13.75;4.45;;;11.30;1.00;;;;;;5068347;28;20458;-80
2022/12/24 00:26:44;;;;;;;8.85;2.35;;;11.20;1.00;;;;;;5075907;28;20032;-81
2022/12/24 00:29:11;;;;;;;16.60;3.85;;;11.10;1.00;;;;;;5071219;28;20035;-80
2022/12/24 00:31:37;;;;;;;6.05;2.00;;;11.00;1.00;;;;;;5083771;28;20041;-79
2022/12/24 00:34:03;;;;;;;13.95;3.65;;;11.00;1.00;;;;;;5077504;28;20036;-79
2022/12/24 00:36:29;;;;;;;11.35;2.80;;;10.90;1.00;;;;;;5052077;28;20373;-80
2022/12/24 00:38:56;;;;;;;5.88;2.45;;;10.90;1.00;;;;;;5075084;28;20480;-78
2022/12/24 00:41:24;;;;;;;12.60;1.83;;;10.90;1.00;;;;;;5075882;28;20040;-79
2022/12/24 00:43:52;;;;;;;10.85;2.10;;;10.90;1.00;;;;;;5073720;28;20393;-76
2022/12/24 00:46:19;;;;;;;8.90;2.00;;;11.00;1.00;;;;;;5057268;28;20040;-80
2022/12/24 00:48:45;;;;;;;8.43;2.15;;;10.90;1.00;;;;;;5074537;28;20025;-80
2022/12/24 00:51:12;;;;;;;9.50;1.77;;;10.90;1.00;;;;;;5073934;28;20028;-79
2022/12/24 00:53:38;;;;;;;6.72;1.63;;;10.90;1.00;;;;;;5073341;28;20043;-77
2022/12/24 00:56:05;;;;;;;9.38;2.10;;;10.90;1.00;;;;;;5073931;28;20405;-77
2022/12/24 00:58:31;;;;;;;6.65;2.47;;;10.90;1.00;;;;;;5075087;28;20036;-81
2022/12/24 01:00:57;;;;;;;9.05;2.00;;;11.00;1.00;;;;;;5070486;28;20127;-77
2022/12/24 01:03:33;;;;;;;12.15;1.83;;;11.10;1.00;;;;;;5073693;28;20029;-79
2022/12/24 01:06:00;;;;;;;8.10;2.05;;;11.00;1.00;;;;;;5073876;28;20032;-76
2022/12/24 01:08:26;;;;;;;9.15;2.00;;;11.10;1.00;;;;;;5074162;28;20033;-77
2022/12/24 01:10:52;;;;;;;10.82;2.25;;;11.00;1.00;;;;;;5074167;28;20036;-76
2022/12/24 01:13:19;;;;;;;9.90;2.05;;;11.10;1.00;;;;;;5072753;28;20036;-80
2022/12/24 01:15:45;;;;;;;12.55;2.33;;;11.10;1.00;;;;;;5073893;28;20047;-78
2022/12/24 01:18:11;;;;;;;7.88;1.52;;;11.20;1.00;;;;;;5073643;28;20051;-78
2022/12/24 01:20:37;;;;;;;7.85;1.58;;;11.10;1.00;;;;;;5074089;28;20028;-78
2022/12/24 01:23:03;;;;;;;9.52;2.53;;;11.00;1.00;;;;;;5053670;28;20385;-78
2022/12/24 01:25:29;;;;;;;14.77;2.72;;;11.10;1.00;;;;;;5056086;28;20397;-81
2022/12/24 01:27:55;;;;;;;10.63;2.10;;;11.20;1.00;;;;;;5073604;28;20039;-76
2022/12/24 01:30:22;;;;;;;16.50;3.45;;;11.20;1.00;;;;;;5056338;28;20497;-78
2022/12/24 01:32:48;;;;;;;8.85;1.98;;;11.10;1.00;;;;;;5072916;28;20032;-78
2022/12/24 01:35:15;;;;;;;12.32;2.25;;;11.00;1.00;;;;;;5072792;28;20029;-78
2022/12/24 01:37:42;;;;;;;6.60;1.67;;;10.90;1.00;;;;;;5074219;28;20033;-79
2022/12/24 01:45:52;;;;;;;10.00;1.92;;;10.90;1.00;;;;;;5073812;28;20037;-79
2022/12/24 01:48:38;;;;;;;8.10;1.98;;;10.90;1.00;;;;;;5073056;28;20041;-80
2022/12/24 01:51:32;;;;;;;6.60;2.35;;;10.70;1.00;;;;;;5077629;28;20095;-78
2022/12/24 01:54:08;;;;;;;10.38;2.15;;;10.60;1.00;;;;;;5072263;28;20028;-77
2022/12/24 01:56:38;;;;;;;7.82;1.70;;;10.50;1.00;;;;;;5075189;28;20035;-77
2022/12/24 01:59:10;;;;;;;6.87;2.17;;;10.60;1.00;;;;;;5067369;28;20047;-79
2022/12/24 02:01:37;;;;;;;12.32;1.98;;;10.80;1.00;;;;;;5073702;28;20029;-79
2022/12/24 02:04:21;;;;;;;8.07;1.85;;;10.70;1.00;;;;;;5070894;28;20417;-77
2022/12/24 02:06:47;;;;;;;6.50;1.70;;;10.80;1.00;;;;;;5073141;28;20334;-78
2022/12/24 02:09:14;;;;;;;6.75;1.80;;;10.80;1.00;;;;;;5072302;28;20047;-76
2022/12/24 02:11:43;;;;;;;9.27;1.70;;;10.70;1.00;;;;;;5073146;28;20033;-79
2022/12/24 02:14:11;;;;;;;12.02;2.28;;;10.70;1.00;;;;;;5071449;28;20043;-79
2022/12/24 02:17:24;;;;;;;8.20;2.25;;;10.70;1.00;;;;;;5073256;28;20052;-79
2022/12/24 02:20:09;;;;;;;9.25;2.95;;;10.80;1.00;;;;;;5006539;28;20051;-78
2022/12/24 02:22:54;;;;;;;8.05;1.60;;;10.70;1.00;;;;;;5071957;28;20371;-78
2022/12/24 02:25:48;;;;;;;9.52;2.53;;;10.70;1.00;;;;;;5075638;28;20044;-79
2022/12/24 02:29:02;;;;;;;6.68;1.80;;;10.60;1.00;;;;;;5064682;28;20041;-78
2022/12/24 02:31:43;;;;;;;9.88;1.60;;;10.60;1.00;;;;;;5072601;28;20056;-79
2022/12/24 02:34:12;;;;;;;13.10;2.53;;;10.60;1.00;;;;;;5070483;28;20055;-79
2022/12/24 02:36:47;;;;;;;6.55;1.60;;;10.60;1.00;;;;;;5072641;28;20036;-79
2022/12/24 02:39:24;;;;;;;8.15;2.30;;;10.60;1.00;;;;;;5071987;28;20048;-80
2022/12/24 02:42:05;;;;;;;8.73;1.52;;;10.60;1.00;;;;;;5054918;28;20032;-79
2022/12/24 02:44:37;;;;;;;16.83;8.90;;;10.50;1.00;;;;;;5065716;28;20458;-80
2022/12/24 02:47:06;;;;;;;11.02;3.15;;;10.50;1.00;;;;;;5053977;28;20039;-78
2022/12/24 02:49:32;;;;;;;9.48;2.35;;;10.60;1.00;;;;;;5072862;28;20039;-79
2022/12/24 02:51:58;;;;;;;13.05;3.13;;;10.60;1.00;;;;;;5074333;28;20044;-76
2022/12/24 02:54:24;;;;;;;6.78;2.05;;;10.70;1.00;;;;;;5072659;28;20028;-79
2022/12/24 02:56:56;;;;;;;14.73;2.85;;;10.60;1.00;;;;;;5076165;28;20047;-78
2022/12/24 02:59:52;;;;;;;8.48;1.85;;;10.60;1.00;;;;;;5069891;28;20063;-78
2022/12/24 03:02:40;;;;;;;14.52;3.60;;;10.60;1.00;;;;;;5072049;28;20028;-77
2022/12/24 03:05:36;;;;;;;6.78;1.60;;;10.60;1.00;;;;;;5069468;28;20028;-79
2022/12/24 03:08:05;;;;;;;10.10;2.10;;;10.60;1.00;;;;;;5068748;28;20044;-78
2022/12/24 03:10:55;;;;;;;9.07;1.90;;;10.60;1.00;;;;;;5071666;28;20033;-79
2022/12/24 03:13:23;;;;;;;12.80;2.10;;;10.60;1.00;;;;;;5069688;28;20036;-79
2022/12/24 03:15:51;;;;;;;16.63;3.47;;;10.60;1.00;;;;;;5065166;28;20052;-79
2022/12/24 03:18:23;;;;;;;11.00;1.95;;;10.70;1.00;;;;;;5064689;28;20033;-78
2022/12/24 03:20:56;;;;;;;10.18;1.77;;;10.60;1.00;;;;;;5066071;28;20036;-80
2022/12/24 03:23:22;;;;;;;8.70;1.92;;;10.60;1.00;;;;;;5069839;28;20048;-81
2022/12/24 03:25:49;;;;;;;7.80;1.95;;;10.60;1.00;;;;;;5071944;28;20033;-80
2022/12/24 03:28:17;;;;;;;12.30;3.55;;;10.60;1.00;;;;;;5070700;28;20036;-81
2022/12/24 03:30:47;;;;;;;9.13;2.30;;;10.70;1.00;;;;;;5053198;28;20048;-78
2022/12/24 03:33:14;;;;;;;6.85;2.65;;;10.80;1.00;;;;;;5069610;28;20036;-77
2022/12/24 03:35:40;;;;;;;14.13;3.25;;;10.80;1.00;;;;;;5070932;28;20044;-78
2022/12/24 03:38:06;;;;;;;10.00;1.90;;;10.70;1.00;;;;;;5071071;28;20028;-78
2022/12/24 03:40:33;;;;;;;14.27;2.58;;;10.60;1.00;;;;;;5061966;28;20039;-78
2022/12/24 03:42:59;;;;;;;13.07;2.13;;;10.70;1.00;;;;;;5069819;28;20032;-76
2022/12/24 03:45:25;;;;;;;10.38;1.55;;;10.70;1.00;;;;;;5070917;28;20028;-78
2022/12/24 03:47:51;;;;;;;13.57;2.05;;;10.70;1.00;;;;;;5071257;28;20036;-78
2022/12/24 03:50:17;;;;;;;4.60;1.50;;;10.70;1.00;;;;;;5070717;28;20036;-79
2022/12/24 03:52:43;;;;;;;7.68;2.03;;;10.60;1.00;;;;;;5070076;28;20024;-79
2022/12/24 03:55:10;;;;;;;6.55;2.17;;;10.60;1.00;;;;;;5070814;28;20028;-79
2022/12/24 03:57:36;;;;;;;10.57;3.10;;;10.60;1.00;;;;;;5071673;28;20036;-79
2022/12/24 04:00:05;;;;;;;10.63;1.85;;;10.60;1.00;;;;;;5071118;28;20037;-76
2022/12/24 04:02:38;;;;;;;12.23;2.00;;;10.70;1.00;;;;;;5076729;28;20047;-79
2022/12/24 04:05:05;;;;;;;5.93;2.05;;;10.70;1.00;;;;;;5070448;28;20029;-75
2022/12/24 04:07:32;;;;;;;10.40;2.75;;;10.70;1.00;;;;;;5073573;28;20083;-79
2022/12/24 04:09:58;;;;;;;17.95;3.15;;;10.70;1.00;;;;;;5075239;28;20037;-79
2022/12/24 04:12:24;;;;;;;14.73;2.67;;;10.70;1.00;;;;;;5071730;28;20045;-78
2022/12/24 04:14:51;;;;;;;8.48;2.13;;;10.80;1.00;;;;;;5075341;28;20041;-79
2022/12/24 04:17:17;;;;;;;12.90;2.60;;;10.80;1.00;;;;;;5071881;28;20057;-79
2022/12/24 04:19:43;;;;;;;10.43;2.03;;;10.80;1.00;;;;;;5072972;28;20048;-78
2022/12/24 04:22:09;;;;;;;15.98;3.35;;;10.80;1.00;;;;;;5073907;28;20024;-76
2022/12/24 04:24:35;;;;;;;11.80;2.20;;;10.90;1.00;;;;;;5076293;28;20492;-78
2022/12/24 04:27:01;;;;;;;12.73;2.15;;;10.80;1.00;;;;;;5074514;28;20043;-76
2022/12/24 04:29:27;;;;;;;14.80;3.00;;;10.70;1.00;;;;;;5074563;28;20043;-78
2022/12/24 04:31:54;;;;;;;9.40;2.38;;;10.80;1.00;;;;;;5075601;28;20039;-78
2022/12/24 04:34:20;;;;;;;19.00;3.50;;;10.70;1.00;;;;;;5071714;28;20393;-79
2022/12/24 04:36:46;;;;;;;15.00;2.72;;;10.80;1.00;;;;;;5074712;28;20465;-78
2022/12/24 04:39:12;;;;;;;19.65;4.40;;;10.80;1.00;;;;;;5073886;28;20485;-79
2022/12/24 04:41:38;;;;;;;8.63;2.90;;;10.80;1.00;;;;;;5074147;28;20047;-79
2022/12/24 04:44:04;;;;;;;9.55;3.13;;;10.80;1.00;;;;;;5071393;28;20044;-75
2022/12/24 04:46:30;;;;;;;11.88;2.60;;;10.80;1.00;;;;;;5073306;28;20041;-78
2022/12/24 04:48:57;;;;;;;14.82;2.67;;;10.80;1.00;;;;;;5074442;28;20036;-79
2022/12/24 04:51:24;;;;;;;17.80;3.58;;;10.80;1.00;;;;;;5073671;28;20036;-80
2022/12/24 04:53:51;;;;;;;12.02;2.42;;;10.80;1.00;;;;;;5068902;28;20039;-79
2022/12/24 04:56:22;;;;;;;7.45;2.20;;;10.80;1.00;;;;;;5071834;28;20377;-79
2022/12/24 04:58:49;;;;;;;13.85;2.28;;;10.80;1.00;;;;;;5074277;28;20051;-78
2022/12/24 05:01:21;;;;;;;10.45;2.45;;;10.80;1.00;;;;;;5073756;28;20358;-78
2022/12/24 05:03:47;;;;;;;7.43;2.35;;;10.80;1.00;;;;;;5073292;28;20386;-79
2022/12/24 05:06:17;;;;;;;13.65;2.75;;;10.80;1.00;;;;;;5073424;28;20024;-78
2022/12/24 05:08:43;;;;;;;11.45;3.13;;;10.70;1.00;;;;;;5073971;28;20047;-79
2022/12/24 05:11:13;;;;;;;9.45;2.95;;;10.70;1.00;;;;;;5073394;28;20478;-78
2022/12/24 05:13:40;;;;;;;11.70;3.33;;;10.60;1.00;;;;;;5072721;28;20163;-78
2022/12/24 05:16:07;;;;;;;13.38;3.05;;;10.50;1.00;;;;;;5073423;28;20402;-75
2022/12/24 05:18:33;;;;;;;13.23;5.00;;;10.50;1.00;;;;;;5072916;28;20040;-79
2022/12/24 05:20:59;;;;;;;17.48;3.13;;;10.50;1.00;;;;;;5073949;28;20032;-79
2022/12/24 05:26:26;;;;;;;10.65;3.00;;;10.40;1.00;;;;;;5073026;28;20393;-80
2022/12/24 05:28:55;;;;;;;10.75;2.42;;;10.30;1.00;;;;;;5073623;28;20047;-79
2022/12/24 05:31:22;;;;;;;14.73;3.05;;;10.20;1.00;;;;;;5069672;28;20044;-79
2022/12/24 05:33:49;;;;;;;13.32;2.63;;;10.20;1.00;;;;;;5072311;28;20044;-79
2022/12/24 05:36:15;;;;;;;13.45;3.67;;;10.10;2.50;;;;;;5072742;28;20040;-79
2022/12/24 05:38:41;;;;;;;14.90;2.50;;;10.00;5.00;;;;;;5073576;28;20028;-80
2022/12/24 05:41:08;;;;;;;14.13;2.72;;;10.00;7.70;;;;;;5073257;28;20032;-76
2022/12/24 05:43:36;;;;;;;13.65;2.83;;;9.90;11.20;;;;;;5072719;28;20032;-79
2022/12/24 05:46:05;;;;;;;11.35;4.10;;;10.00;12.90;;;;;;5067280;28;20043;-79
2022/12/24 05:48:32;;;;;;;9.48;2.50;;;9.90;14.30;;;;;;5067130;28;20033;-79
2022/12/24 05:50:58;;;;;;;11.38;2.38;;;9.90;15.30;;;;;;5067165;28;20458;-79
2022/12/24 05:53:24;;;;;;;7.97;2.15;;;9.80;16.60;;;;;;5064340;28;20029;-79
2022/12/24 05:55:51;;;;;;;11.70;3.88;;;9.80;18.80;;;;;;5074033;28;20028;-79
2022/12/24 05:58:17;;;;;;;14.13;3.13;;;9.80;21.10;;;;;;5072581;28;20041;-79
2022/12/24 06:00:43;;;;;;;13.27;3.80;;;9.70;23.80;;;;;;5055124;28;20039;-79
2022/12/24 06:03:09;;;;;;;11.88;4.03;;;9.80;24.70;;;;;;5070752;28;20032;-75
2022/12/24 06:05:36;;;;;;;19.13;3.70;;;9.80;24.20;;;;;;5072411;28;20041;-78
2022/12/24 06:08:02;;;;;;;17.92;3.47;;;9.80;24.40;;;;;;5072086;28;20032;-78
2022/12/24 06:10:28;;;;;;;10.50;3.20;;;9.80;24.60;;;;;;5069019;28;20044;-79
2022/12/24 06:12:54;;;;;;;20.33;3.33;;;9.80;24.10;;;;;;5071667;28;20040;-80
2022/12/24 06:15:21;;;;;;;11.95;3.17;;;9.80;24.70;;;;;;5071736;28;20036;-80
2022/12/24 06:17:47;;;;;;;12.68;2.72;;;9.80;25.50;;;;;;5072661;28;20039;-79
2022/12/24 06:20:13;;;;;;;14.07;3.85;;;9.70;26.70;;;;;;5071851;28;20028;-79
2022/12/24 06:22:39;;;;;;;15.63;4.90;;;9.70;28.80;;;;;;5071464;28;20931;-80
2022/12/24 06:25:05;;;;;;;14.40;5.50;;;9.70;29.80;;;;;;5072673;28;20040;-80
2022/12/24 06:27:32;;;;;;;20.95;7.00;;;9.70;29.60;;;;;;5071768;28;20036;-79
2022/12/24 06:29:58;;;;;;;14.27;4.63;;;9.60;30.90;;;;;;5054633;28;20393;-78
2022/12/24 06:32:24;;;;;;;18.00;4.95;;;9.60;32.20;;;;;;5071322;28;20457;-78
2022/12/24 06:34:50;;;;;;;32.83;13.27;;;9.60;31.90;;;;;;5071142;28;20032;-79
2022/12/24 06:37:19;;;;;;;25.85;7.22;;;9.60;30.50;;;;;;5071557;28;20028;-78
2022/12/24 06:39:46;;;;;;;23.88;9.57;;;9.60;29.90;;;;;;5074345;28;20385;-79
2022/12/24 06:42:15;;;;;;;20.90;7.53;;;9.70;29.00;;;;;;5077865;28;20032;-77
2022/12/24 06:44:41;;;;;;;55.78;26.15;;;9.70;26.80;;;;;;5072852;28;20032;-79
2022/12/24 06:47:07;;;;;;;129.57;70.10;;;9.70;25.20;;;;;;5067943;28;20029;-78
2022/12/24 06:49:33;;;;;;;99.80;48.90;;;9.70;24.50;;;;;;5071813;28;20028;-78
2022/12/24 06:51:59;;;;;;;76.30;39.67;;;9.80;22.20;;;;;;5066225;28;20044;-79
2022/12/24 06:54:26;;;;;;;41.25;23.00;;;9.80;20.90;;;;;;5069891;28;20465;-79
2022/12/24 06:56:52;;;;;;;80.72;41.90;;;9.80;20.50;;;;;;5072310;28;20036;-79
2022/12/24 06:59:18;;;;;;;29.63;10.10;;;9.90;20.00;;;;;;5071198;28;20421;-78
2022/12/24 07:01:44;;;;;;;38.60;17.83;;;9.90;18.60;;;;;;5071958;28;20051;-78
2022/12/24 07:04:10;;;;;;;31.52;17.20;;;9.90;17.20;;;;;;5052683;28;20033;-76
2022/12/24 07:06:36;;;;;;;20.98;10.38;;;10.00;15.40;;;;;;5071983;28;20033;-79
2022/12/24 07:09:03;;;;;;;15.38;6.28;;;10.00;13.60;;;;;;5053452;28;20048;-79
2022/12/24 07:11:29;;;;;;;19.85;4.35;;;10.00;12.40;;;;;;5069974;28;20383;-79
2022/12/24 07:13:55;;;;;;;20.73;5.95;;;10.00;12.50;;;;;;5071178;28;20040;-79
2022/12/24 07:16:21;;;;;;;20.15;5.03;;;10.10;10.30;;;;;;5074764;28;20048;-79
2022/12/24 07:18:47;;;;;;;16.48;5.28;;;10.10;8.50;;;;;;5075637;28;20663;-78
2022/12/24 07:21:14;;;;;;;17.10;4.90;;;10.10;8.00;;;;;;5074717;28;20028;-76
2022/12/24 07:23:40;;;;;;;19.88;4.32;;;10.10;7.60;;;;;;5068588;28;20041;-77
2022/12/24 07:26:06;;;;;;;14.40;5.97;;;10.00;6.50;;;;;;5068774;28;20036;-78
2022/12/24 07:28:32;;;;;;;16.67;4.45;;;10.10;3.80;;;;;;5070617;28;20020;-79
2022/12/24 07:30:59;;;;;;;19.00;3.55;;;10.20;1.00;;;;;;5070803;28;20044;-79
2022/12/24 07:33:26;;;;;;;20.88;5.60;;;10.20;1.00;;;;;;5069505;28;20031;-78
2022/12/24 07:36:06;;;;;;;16.45;3.45;;;10.20;1.00;;;;;;5070585;28;20052;-78
2022/12/24 07:38:33;;;;;;;18.92;3.45;;;10.30;1.00;;;;;;5071079;28;20036;-78
2022/12/24 07:40:59;;;;;;;10.52;3.15;;;10.30;1.00;;;;;;5071286;28;20362;-79
2022/12/24 07:43:26;;;;;;;20.75;4.00;;;10.30;1.00;;;;;;5069432;28;20096;-80
2022/12/24 07:45:58;;;;;;;13.07;3.28;;;10.30;1.00;;;;;;5071680;28;20035;-84
2022/12/24 07:48:26;;;;;;;18.92;4.88;;;10.40;1.00;;;;;;5070688;28;20033;-79
2022/12/24 07:50:52;;;;;;;17.90;4.35;;;10.40;1.00;;;;;;5071412;28;20461;-78
2022/12/24 07:53:19;;;;;;;15.57;4.07;;;10.40;1.00;;;;;;5068916;28;20045;-78
2022/12/24 07:55:45;;;;;;;15.48;3.95;;;10.40;1.00;;;;;;5071632;28;20470;-79
2022/12/24 07:58:11;;;;;;;18.15;5.00;;;10.30;1.00;;;;;;5072022;28;20033;-78
2022/12/24 08:00:37;;;;;;;19.27;4.13;;;10.20;1.00;;;;;;5067142;28;20045;-78
2022/12/24 08:03:04;;;;;;;9.85;3.38;;;10.20;1.00;;;;;;5068262;28;20024;-78
2022/12/24 08:05:36;;;;;;;16.30;3.55;;;10.20;1.00;;;;;;5062044;28;20053;-78
2022/12/24 08:08:02;;;;;;;25.60;5.53;;;10.20;1.00;;;;;;5065123;28;20028;-79
2022/12/24 08:10:28;;;;;;;18.50;3.20;;;10.30;1.00;;;;;;5062853;28;20040;-77
2022/12/24 08:12:54;;;;;;;12.32;3.60;;;10.30;1.00;;;;;;5063063;28;20036;-80
2022/12/24 08:15:21;;;;;;;9.32;3.35;;;10.30;1.00;;;;;;5051959;28;20470;-79
2022/12/24 08:17:47;;;;;;;17.08;3.50;;;10.30;1.00;;;;;;5067495;28;20083;-78
2022/12/24 08:20:14;;;;;;;13.70;4.25;;;10.30;1.00;;;;;;5069276;28;20037;-75
2022/12/24 08:22:41;;;;;;;17.77;4.43;;;10.30;1.00;;;;;;5066222;28;20092;-80
2022/12/24 08:25:07;;;;;;;22.70;7.18;;;10.30;1.00;;;;;;5071089;28;20029;-79
2022/12/24 08:27:33;;;;;;;13.02;4.05;;;10.40;1.00;;;;;;5071299;28;20108;-80
2022/12/24 08:30:00;;;;;;;22.23;5.82;;;10.40;1.00;;;;;;5072018;28;20053;-76
2022/12/24 08:32:26;;;;;;;13.38;3.17;;;10.50;1.00;;;;;;5067914;28;20040;-76
2022/12/24 08:34:52;;;;;;;10.40;3.58;;;10.50;1.00;;;;;;5047395;28;20041;-76
2022/12/24 08:37:18;;;;;;;14.32;4.78;;;10.60;1.00;;;;;;5071579;28;20024;-76
2022/12/24 08:39:44;;;;;;;9.70;3.17;;;10.60;1.00;;;;;;5071876;28;20036;-75
2022/12/24 08:42:16;;;;;;;26.33;4.85;;;10.70;1.00;;;;;;5070888;28;20032;-75
2022/12/24 08:44:42;;;;;;;16.38;5.63;;;10.70;1.00;;;;;;5070190;28;20032;-75
2022/12/24 08:47:08;;;;;;;27.20;6.43;;;10.70;1.00;;;;;;5070494;28;20039;-75
2022/12/24 08:49:34;;;;;;;19.48;4.82;;;10.70;1.00;;;;;;5069468;28;20230;-75
2022/12/24 08:52:00;;;;;;;18.58;4.63;;;10.80;1.00;;;;;;5068016;28;20062;-75
2022/12/24 08:54:27;;;;;;;19.40;4.32;;;10.80;1.00;;;;;;5065891;28;20036;-75
2022/12/24 08:56:53;;;;;;;16.60;3.70;;;10.80;1.00;;;;;;5074307;28;20032;-76
2022/12/24 08:59:19;;;;;;;11.88;3.88;;;10.90;1.00;;;;;;5073529;28;20446;-75
2022/12/24 09:01:45;;;;;;;12.48;3.60;;;10.90;1.00;;;;;;5056223;28;20040;-75
2022/12/24 09:04:11;;;;;;;12.50;3.75;;;11.10;1.00;;;;;;5059600;28;20040;-75
2022/12/24 09:06:37;;;;;;;16.85;4.07;;;11.20;1.00;;;;;;5063684;28;20032;-75
2022/12/24 09:09:05;;;;;;;13.75;3.60;;;11.30;1.00;;;;;;5068873;28;20025;-75
2022/12/24 09:11:33;;;;;;;20.75;4.05;;;11.40;1.00;;;;;;5069285;28;20043;-75
2022/12/24 09:14:00;;;;;;;34.90;5.82;;;11.60;1.00;;;;;;5069083;28;20032;-75
2022/12/24 09:16:26;;;;;;;18.63;4.10;;;11.60;1.00;;;;;;5066292;28;20044;-75
2022/12/24 09:18:52;;;;;;;17.15;4.45;;;11.70;1.00;;;;;;5089431;28;20035;-75
2022/12/24 09:21:19;;;;;;;16.30;3.33;;;11.80;1.00;;;;;;5091283;28;20036;-74
2022/12/24 09:23:46;;;;;;;17.15;4.00;;;11.90;1.00;;;;;;5091373;28;20036;-75
2022/12/24 09:26:22;;;;;;;18.95;4.05;;;12.00;1.00;;;;;;5092951;28;20393;-75
2022/12/24 09:28:49;;;;;;;21.42;3.40;;;12.10;1.00;;;;;;5093380;28;20036;-75
2022/12/24 09:31:15;;;;;;;23.38;5.13;;;12.20;1.00;;;;;;5091736;28;20031;-75
2022/12/24 09:33:43;;;;;;;18.42;3.90;;;12.10;1.00;;;;;;5090427;28;20051;-74
2022/12/24 09:36:09;;;;;;;17.23;5.22;;;12.10;1.00;;;;;;5086585;28;20035;-74
2022/12/24 09:38:37;;;;;;;14.52;3.85;;;12.20;1.00;;;;;;5092249;28;20032;-74
2022/12/24 09:41:10;;;;;;;10.30;2.80;;;12.20;1.00;;;;;;5092243;28;20414;-74
2022/12/24 09:43:38;;;;;;;14.77;4.15;;;12.20;1.00;;;;;;5089011;28;20028;-75
2022/12/24 09:46:31;;;;;;;16.05;3.08;;;12.30;1.00;;;;;;5092958;28;20038;-74
2022/12/24 09:49:03;;;;;;;9.27;2.95;;;12.40;1.00;;;;;;5088087;28;20043;-75
2022/12/24 09:51:48;;;;;;;20.17;4.60;;;12.50;1.00;;;;;;5087697;28;20043;-76
2022/12/24 09:54:24;;;;;;;12.27;3.38;;;12.60;1.00;;;;;;5088030;28;20028;-75
2022/12/24 09:56:52;;;;;;;29.27;5.47;;;12.50;1.00;;;;;;5092932;28;20035;-75
2022/12/24 09:59:24;;;;;;;27.15;5.78;;;12.50;1.00;;;;;;5090039;28;20032;-75
2022/12/24 10:01:53;;;;;;;18.27;4.22;;;12.50;1.00;;;;;;5093137;28;20032;-76
2022/12/24 10:04:27;;;;;;;14.02;3.45;;;12.50;1.00;;;;;;5089490;28;20039;-75
2022/12/24 10:07:09;;;;;;;20.13;4.78;;;12.50;1.00;;;;;;5092542;28;20032;-76
2022/12/24 10:10:10;;;;;;;24.67;4.20;;;12.60;1.00;;;;;;5086950;28;20031;-76
2022/12/24 10:12:48;;;;;;;14.13;3.60;;;12.60;1.00;;;;;;5088666;28;20043;-77
2022/12/24 10:15:22;;;;;;;15.43;3.42;;;12.60;1.00;;;;;;5090241;28;20039;-76
2022/12/24 10:18:37;;;;;;;11.80;3.80;;;12.50;1.00;;;;;;5089575;28;20032;-76
2022/12/24 10:21:32;;;;;;;23.25;4.47;;;12.30;1.00;;;;;;5062446;28;20044;-76
2022/12/24 10:24:10;;;;;;;17.92;3.22;;;12.20;1.00;;;;;;5087239;28;20039;-76
2022/12/24 10:26:45;;;;;;;18.75;4.38;;;12.20;1.00;;;;;;5091622;28;20629;-76
2022/12/24 10:29:18;;;;;;;17.30;5.00;;;12.20;1.00;;;;;;5085678;28;20036;-74
2022/12/24 10:32:08;;;;;;;11.40;3.15;;;12.20;1.00;;;;;;5085372;28;20058;-75
2022/12/24 10:34:42;;;;;;;9.75;3.13;;;12.30;1.00;;;;;;5084346;28;20055;-73
2022/12/24 10:37:19;;;;;;;17.63;2.78;;;12.30;1.00;;;;;;5085994;28;20035;-75
2022/12/24 10:39:45;;;;;;;16.08;3.65;;;12.40;1.00;;;;;;5083098;28;20039;-75
2022/12/24 10:42:14;;;;;;;11.77;3.05;;;12.40;1.00;;;;;;5091230;28;20032;-75
2022/12/24 10:44:40;;;;;;;19.27;4.22;;;12.50;1.00;;;;;;5085003;28;20028;-76
2022/12/24 10:47:09;;;;;;;18.13;3.42;;;12.50;1.00;;;;;;5091427;28;20073;-75
2022/12/24 10:49:52;;;;;;;13.98;4.00;;;12.50;1.00;;;;;;5086872;28;20389;-76
2022/12/24 10:52:21;;;;;;;9.90;2.92;;;12.50;1.00;;;;;;5088818;28;20043;-75
2022/12/24 10:55:20;;;;;;;16.63;3.40;;;12.60;1.00;;;;;;5084992;28;20674;-76
2022/12/24 10:58:01;;;;;;;17.27;4.90;;;12.60;1.00;;;;;;5086942;28;20372;-76
2022/12/24 11:00:28;;;;;;;15.25;4.05;;;12.70;1.00;;;;;;5087929;28;20040;-76
2022/12/24 11:03:18;;;;;;;17.13;2.90;;;12.90;1.00;;;;;;5087024;28;20028;-76
2022/12/24 11:05:45;;;;;;;22.83;4.15;;;12.90;1.00;;;;;;5090460;28;20024;-75
2022/12/24 11:08:19;;;;;;;14.02;3.65;;;12.90;1.00;;;;;;5085597;28;20393;-76
2022/12/24 11:11:00;;;;;;;15.90;3.00;;;12.80;1.00;;;;;;5085895;28;20039;-73
2022/12/24 11:13:30;;;;;;;12.55;3.75;;;12.80;1.00;;;;;;5077845;28;20028;-74
2022/12/24 11:16:23;;;;;;;17.92;3.92;;;12.70;1.00;;;;;;5082852;28;20040;-73
2022/12/24 11:18:52;;;;;;;19.08;3.92;;;12.70;1.00;;;;;;5091191;28;20040;-74
2022/12/24 11:21:30;;;;;;;16.23;3.85;;;12.60;1.00;;;;;;5083410;28;20028;-76
2022/12/24 11:23:58;;;;;;;16.17;3.67;;;12.60;1.00;;;;;;5080517;28;20028;-75
2022/12/24 11:26:27;;;;;;;12.82;3.45;;;12.50;1.00;;;;;;5081506;28;20095;-75
2022/12/24 11:29:07;;;;;;;13.18;4.07;;;12.40;1.00;;;;;;5084641;28;20480;-75
2022/12/24 11:31:36;;;;;;;17.92;4.35;;;12.40;1.00;;;;;;5081704;28;20028;-76
2022/12/24 11:34:27;;;;;;;14.75;2.80;;;12.40;1.00;;;;;;5079885;28;20028;-75
2022/12/24 11:37:15;;;;;;;18.88;3.72;;;12.40;1.00;;;;;;5083479;28;20384;-75
2022/12/24 11:39:46;;;;;;;15.57;3.55;;;12.50;1.00;;;;;;5082291;28;20024;-75
2022/12/24 11:42:35;;;;;;;18.90;5.22;;;12.40;1.00;;;;;;5083002;28;20044;-75
2022/12/24 11:45:21;;;;;;;21.10;6.18;;;12.40;1.00;;;;;;5082547;28;20389;-75
2022/12/24 11:47:47;;;;;;;11.15;2.63;;;12.40;1.00;;;;;;5085786;28;20024;-75
2022/12/24 11:50:32;;;;;;;11.30;3.72;;;12.40;1.00;;;;;;5089130;28;20031;-75
2022/12/24 11:53:17;;;;;;;19.65;3.50;;;12.50;1.00;;;;;;5082086;28;20044;-75
2022/12/24 11:55:58;;;;;;;18.27;4.85;;;12.50;1.00;;;;;;5082253;28;20024;-76
2022/12/24 11:58:45;;;;;;;14.87;3.73;;;12.50;1.00;;;;;;5084743;28;20028;-76
2022/12/24 12:01:29;;;;;;;15.80;5.57;;;12.50;1.00;;;;;;5085666;28;20047;-76
2022/12/24 12:04:18;;;;;;;17.10;4.53;;;12.60;1.00;;;;;;5081714;28;20054;-76
2022/12/24 12:06:54;;;;;;;20.17;4.43;;;12.70;1.00;;;;;;5080064;28;20028;-76
2022/12/24 12:09:26;;;;;;;13.07;4.38;;;12.80;1.00;;;;;;5079982;28;20040;-76
2022/12/24 12:12:05;;;;;;;11.25;3.10;;;12.80;1.00;;;;;;5083955;28;20035;-75
2022/12/24 12:14:37;;;;;;;17.33;4.38;;;12.80;1.00;;;;;;5081739;28;20043;-76
2022/12/24 12:17:28;;;;;;;13.10;4.80;;;13.00;1.00;;;;;;5072662;28;20051;-76
2022/12/24 12:20:09;;;;;;;15.27;3.10;;;13.00;1.00;;;;;;5063829;28;20036;-76
2022/12/24 12:22:47;;;;;;;;;;;13.10;1.00;;;;;;5060608;28;20040;-76
2022/12/24 12:25:29;;;;;;;11.15;3.33;;;13.10;1.00;;;;;;5066528;28;19908;-76
2022/12/24 12:27:59;;;;;;;15.13;4.88;;;13.30;1.00;;;;;;5067058;28;20428;-76
2022/12/24 12:30:25;;;;;;;19.88;5.35;;;13.40;1.00;;;;;;5073979;28;20056;-76
2022/12/24 12:33:24;;;;;;;13.15;3.35;;;13.30;1.00;;;;;;5073399;28;20040;-75
2022/12/24 12:35:53;;;;;;;20.50;4.80;;;13.30;1.00;;;;;;5070606;28;20028;-75
2022/12/24 12:38:27;;;;;;;11.98;4.18;;;13.40;1.00;;;;;;5069908;28;20028;-75
2022/12/24 12:41:09;;;;;;;11.27;3.63;;;13.30;1.00;;;;;;5069375;28;20036;-75
2022/12/24 12:43:41;;;;;;;10.32;2.92;;;13.30;1.00;;;;;;5072390;28;20079;-76
2022/12/24 12:46:13;;;;;;;14.27;3.28;;;13.30;1.00;;;;;;5074045;28;20048;-76
2022/12/24 12:49:04;;;;;;;13.05;2.90;;;13.30;1.00;;;;;;5069151;28;20031;-76
2022/12/24 12:51:56;;;;;;;16.73;5.50;;;13.20;1.00;;;;;;5071350;28;20051;-76
2022/12/24 12:54:43;;;;;;;11.50;2.55;;;13.20;1.00;;;;;;5068726;28;20056;-76
2022/12/24 12:57:14;;;;;;;18.25;5.20;;;13.20;1.00;;;;;;5049167;28;20048;-75
2022/12/24 12:59:56;;;;;;;29.60;5.20;;;13.10;1.00;;;;;;5071425;28;20536;-75
2022/12/24 13:02:54;;;;;;;13.50;4.53;;;13.00;1.00;;;;;;5073017;28;20036;-75
2022/12/24 13:05:49;;;;;;;15.57;4.60;;;13.00;1.00;;;;;;5073613;28;20040;-75
2022/12/24 13:08:24;;;;;;;10.20;3.05;;;13.00;1.00;;;;;;5019991;28;20040;-75
2022/12/24 13:11:10;;;;;;;18.15;3.25;;;13.10;1.00;;;;;;5065320;28;20036;-74
2022/12/24 13:13:50;;;;;;;14.55;3.55;;;13.20;1.00;;;;;;5068352;28;20048;-75
2022/12/24 13:16:31;;;;;;;12.52;4.15;;;13.20;1.00;;;;;;5073692;28;20056;-75
2022/12/24 13:19:08;;;;;;;;;;;13.10;1.00;;;;;;5073614;28;20036;-76